Arch, NM

2:23 PM MDT on September 21, 2014 (GMT -0600)
Clovis Municipal | Change Station
CLOSE
Current Station
Airport
Location: Clovis,
Elevation: 4216 ft
Nearby Weather Stations

Elev 4216 ft 34.43 °N, 103.08 °W | Updated 8 minutes ago

Overcast
Overcast
79 °F
Feels Like 79 °F
N
14
Wind Variable Wind from East
Gusts 11 mph

Today
High -- | Low -- °F
--% Chance of Precip.
Yesterday
High -- | Low -- °F
Precip. -- in
6:40 AM 6:51 PM
Waning Crescent, 5% visible
Pressure 30.24 in
Visibility 10.0 miles
Clouds
Dew Point 61 °F
Humidity 54%
Rainfall 0.00 in
Snow Depth 2 in , 0 in , 0 in
UV Not available.
Pollen 7.30 out of 12
Air Quality Not available.
Flu Activity Not available.
METAR KCVN 212015Z AUTO 10012KT 10SM 26/16 A3024 RMK AO1

More Conditions Fewer Conditions

Pressure 30.24 in
Visibility 10.0 miles
Clouds
Dew Point 61 °F
Humidity 54%
Rainfall 0.00 in
Snow Depth 2 in , 0 in , 0 in
UV Not available.
Pollen 7.30 out of 12
Air Quality Not available.
Flu Activity Not available.
METAR KCVN 212015Z AUTO 10012KT 10SM 26/16 A3024 RMK AO1

More Conditions Fewer Conditions

Nowcast | as of 2:06 PM MDT on September 21, 2014

Through 4 PM MDT...widespread showers and isolated thunderstorms will continue over portions of the southeast and east Central Plains extending west to the south central mountains and adjacent Highlands. Movement will be toward the northwest at 10 to 15 mph. The strongest storms will be capable of torrential downpours...one half inch hail...wind gusts to 50 mph and dangerous cloud to ground lightning. Rainfall amounts will range from around one half to one inch to as much as two inches through 4 PM. Locations impacted include Hagerman...Roswell...Mesa...Elkins...Yeso...Fort Sumner...Floyd... Portales...Causey...Pep...lingo...Milnesand...Kenna and Elida.

×

10-Day Weather Forecast

Almanac

Astronomy

Sep. 21, 2014 Rise Set
Actual Time 6:40 AM MDT 6:51 PM MDT
Civil Twilight 6:15 AM MDT 7:16 PM MDT
Nautical Twilight 5:46 AM MDT 7:45 PM MDT
Astronomical Twilight 5:16 AM MDT 8:15 PM MDT
Moon 4:21 AM MDT 5:24 PM MDT
Length of Visible Light 13h 00m
Length of Day
12h 10m
Tomorrow will be 2m 6s shorter.
Waning Crescent, 5% of the Moon is Illuminated
Today
Waning Crescent
Sep 24
New
Oct 1
First Quarter
Oct 8
Full
Oct 15
Last Quarter

Today's Extremes

State Highs State Lows

Community

WunderPhotos

Upload Photos

1,755,244 photos uploaded!

Nearby

Snow Depth

Station Depth Elevation
Wesner Springs 2 in 11120 ft
Quemazon 0 in 9500 ft
Sierra Blanca 0 in 10280 ft
Red River Pass #2 0 in 9850 ft
Gallegos Peak 0 in 9800 ft

Earthquake Activity

City Distance Mag. Time & Date
No recent earthquake activity has been reported nearby.
Minimum magnitude displayed is 2.5.

Coastal Water Temperatures

Place Temperature
No Stations Reporting

Nearby Weather Stations